sensor_id;sensor_type;location;lat;lon;timestamp;P1;durP1;ratioP1;P2;durP2;ratioP2
20749;SDS011;10535;50.664;4.564;2023-04-03T00:01:10;6.67;;;4.83;;
20749;SDS011;10535;50.664;4.564;2023-04-03T00:03:36;6.93;;;3.87;;
20749;SDS011;10535;50.664;4.564;2023-04-03T00:06:02;6.30;;;4.27;;
20749;SDS011;10535;50.664;4.564;2023-04-03T00:08:30;6.30;;;4.80;;
20749;SDS011;10535;50.664;4.564;2023-04-03T00:10:58;7.60;;;4.43;;
20749;SDS011;10535;50.664;4.564;2023-04-03T00:13:23;7.10;;;4.00;;
20749;SDS011;10535;50.664;4.564;2023-04-03T00:15:50;4.70;;;4.17;;
20749;SDS011;10535;50.664;4.564;2023-04-03T00:18:16;6.70;;;4.67;;
20749;SDS011;10535;50.664;4.564;2023-04-03T00:20:43;9.17;;;4.30;;
20749;SDS011;10535;50.664;4.564;2023-04-03T00:23:09;8.93;;;4.70;;
20749;SDS011;10535;50.664;4.564;2023-04-03T00:25:35;4.70;;;4.17;;
20749;SDS011;10535;50.664;4.564;2023-04-03T00:28:01;7.37;;;3.63;;
20749;SDS011;10535;50.664;4.564;2023-04-03T00:30:27;8.00;;;4.17;;
20749;SDS011;10535;50.664;4.564;2023-04-03T00:32:53;5.80;;;4.83;;
20749;SDS011;10535;50.664;4.564;2023-04-03T00:35:20;10.77;;;4.50;;
20749;SDS011;10535;50.664;4.564;2023-04-03T00:37:47;5.63;;;4.03;;
20749;SDS011;10535;50.664;4.564;2023-04-03T00:40:15;7.50;;;4.30;;
20749;SDS011;10535;50.664;4.564;2023-04-03T00:42:41;5.93;;;4.63;;
20749;SDS011;10535;50.664;4.564;2023-04-03T00:47:43;5.67;;;4.23;;
20749;SDS011;10535;50.664;4.564;2023-04-03T00:50:09;5.87;;;4.60;;
20749;SDS011;10535;50.664;4.564;2023-04-03T00:52:35;5.23;;;3.90;;
20749;SDS011;10535;50.664;4.564;2023-04-03T00:55:04;5.50;;;4.03;;
20749;SDS011;10535;50.664;4.564;2023-04-03T00:57:33;6.60;;;4.40;;
20749;SDS011;10535;50.664;4.564;2023-04-03T01:00:03;3.83;;;2.90;;
20749;SDS011;10535;50.664;4.564;2023-04-03T01:02:32;5.90;;;3.50;;
20749;SDS011;10535;50.664;4.564;2023-04-03T01:04:57;6.50;;;3.83;;
20749;SDS011;10535;50.664;4.564;2023-04-03T01:07:24;5.10;;;3.40;;
20749;SDS011;10535;50.664;4.564;2023-04-03T01:09:56;7.63;;;4.07;;
20749;SDS011;10535;50.664;4.564;2023-04-03T01:12:25;6.17;;;4.13;;
20749;SDS011;10535;50.664;4.564;2023-04-03T01:14:57;7.47;;;4.07;;
20749;SDS011;10535;50.664;4.564;2023-04-03T01:17:30;8.20;;;4.43;;
20749;SDS011;10535;50.664;4.564;2023-04-03T01:25:47;4.73;;;3.97;;
20749;SDS011;10535;50.664;4.564;2023-04-03T01:28:17;7.60;;;4.33;;
20749;SDS011;10535;50.664;4.564;2023-04-03T01:30:48;5.33;;;3.73;;
20749;SDS011;10535;50.664;4.564;2023-04-03T01:33:24;5.33;;;4.03;;
20749;SDS011;10535;50.664;4.564;2023-04-03T01:35:50;5.37;;;3.87;;
20749;SDS011;10535;50.664;4.564;2023-04-03T01:38:15;5.67;;;4.10;;
20749;SDS011;10535;50.664;4.564;2023-04-03T01:40:41;5.67;;;4.07;;
20749;SDS011;10535;50.664;4.564;2023-04-03T01:43:07;5.40;;;4.03;;
20749;SDS011;10535;50.664;4.564;2023-04-03T01:45:33;3.47;;;3.17;;
20749;SDS011;10535;50.664;4.564;2023-04-03T01:47:59;5.93;;;3.50;;
20749;SDS011;10535;50.664;4.564;2023-04-03T01:50:25;5.03;;;3.63;;
20749;SDS011;10535;50.664;4.564;2023-04-03T01:52:50;6.60;;;3.73;;
20749;SDS011;10535;50.664;4.564;2023-04-03T01:55:16;9.20;;;4.30;;
20749;SDS011;10535;50.664;4.564;2023-04-03T01:57:42;8.13;;;4.13;;
20749;SDS011;10535;50.664;4.564;2023-04-03T02:00:07;10.33;;;4.50;;
20749;SDS011;10535;50.664;4.564;2023-04-03T02:02:34;6.17;;;4.20;;
20749;SDS011;10535;50.664;4.564;2023-04-03T02:05:00;7.13;;;4.50;;
20749;SDS011;10535;50.664;4.564;2023-04-03T02:07:26;4.60;;;3.67;;
20749;SDS011;10535;50.664;4.564;2023-04-03T02:09:52;8.80;;;3.70;;
20749;SDS011;10535;50.664;4.564;2023-04-03T02:12:19;5.43;;;3.47;;
20749;SDS011;10535;50.664;4.564;2023-04-03T02:14:44;4.33;;;3.93;;
20749;SDS011;10535;50.664;4.564;2023-04-03T02:17:10;7.40;;;4.73;;
20749;SDS011;10535;50.664;4.564;2023-04-03T02:19:36;7.10;;;4.73;;
20749;SDS011;10535;50.664;4.564;2023-04-03T02:22:02;5.17;;;4.20;;
20749;SDS011;10535;50.664;4.564;2023-04-03T02:24:28;7.13;;;4.70;;
20749;SDS011;10535;50.664;4.564;2023-04-03T02:26:54;10.80;;;5.07;;
20749;SDS011;10535;50.664;4.564;2023-04-03T02:29:20;10.27;;;4.87;;
20749;SDS011;10535;50.664;4.564;2023-04-03T02:31:46;3.13;;;2.87;;
20749;SDS011;10535;50.664;4.564;2023-04-03T02:34:11;5.70;;;5.00;;
20749;SDS011;10535;50.664;4.564;2023-04-03T02:36:37;5.27;;;4.03;;
20749;SDS011;10535;50.664;4.564;2023-04-03T02:39:05;8.00;;;4.10;;
20749;SDS011;10535;50.664;4.564;2023-04-03T02:41:31;6.80;;;4.20;;
20749;SDS011;10535;50.664;4.564;2023-04-03T02:44:01;5.83;;;4.57;;
20749;SDS011;10535;50.664;4.564;2023-04-03T02:46:28;6.47;;;3.97;;
20749;SDS011;10535;50.664;4.564;2023-04-03T02:48:53;8.30;;;3.80;;
20749;SDS011;10535;50.664;4.564;2023-04-03T02:51:19;7.37;;;4.77;;
20749;SDS011;10535;50.664;4.564;2023-04-03T02:53:47;8.93;;;4.07;;
20749;SDS011;10535;50.664;4.564;2023-04-03T02:56:33;6.03;;;4.90;;
20749;SDS011;10535;50.664;4.564;2023-04-03T02:59:02;5.50;;;4.30;;
20749;SDS011;10535;50.664;4.564;2023-04-03T03:01:28;5.93;;;4.60;;
20749;SDS011;10535;50.664;4.564;2023-04-03T03:04:06;6.00;;;4.30;;
20749;SDS011;10535;50.664;4.564;2023-04-03T03:06:31;5.23;;;4.03;;
20749;SDS011;10535;50.664;4.564;2023-04-03T03:08:57;4.77;;;3.70;;
20749;SDS011;10535;50.664;4.564;2023-04-03T03:11:23;3.83;;;3.47;;
20749;SDS011;10535;50.664;4.564;2023-04-03T03:13:50;8.10;;;4.73;;
20749;SDS011;10535;50.664;4.564;2023-04-03T03:16:16;6.90;;;4.80;;
20749;SDS011;10535;50.664;4.564;2023-04-03T03:18:42;8.97;;;4.53;;
20749;SDS011;10535;50.664;4.564;2023-04-03T03:21:08;4.90;;;4.00;;
20749;SDS011;10535;50.664;4.564;2023-04-03T03:23:35;8.20;;;4.50;;
20749;SDS011;10535;50.664;4.564;2023-04-03T03:26:02;7.23;;;3.80;;
20749;SDS011;10535;50.664;4.564;2023-04-03T03:28:30;6.67;;;4.83;;
20749;SDS011;10535;50.664;4.564;2023-04-03T03:30:59;8.57;;;4.53;;
20749;SDS011;10535;50.664;4.564;2023-04-03T03:33:25;4.03;;;3.27;;
20749;SDS011;10535;50.664;4.564;2023-04-03T03:35:57;6.60;;;3.97;;
20749;SDS011;10535;50.664;4.564;2023-04-03T03:38:26;5.17;;;3.73;;
20749;SDS011;10535;50.664;4.564;2023-04-03T03:41:00;9.97;;;4.97;;
20749;SDS011;10535;50.664;4.564;2023-04-03T03:43:38;11.07;;;4.63;;
20749;SDS011;10535;50.664;4.564;2023-04-03T03:46:12;5.57;;;4.10;;
20749;SDS011;10535;50.664;4.564;2023-04-03T03:48:42;5.60;;;4.03;;
20749;SDS011;10535;50.664;4.564;2023-04-03T03:51:07;5.73;;;3.77;;
20749;SDS011;10535;50.664;4.564;2023-04-03T03:53:33;3.57;;;2.50;;
20749;SDS011;10535;50.664;4.564;2023-04-03T03:56:18;6.83;;;4.27;;
20749;SDS011;10535;50.664;4.564;2023-04-03T03:58:45;5.87;;;3.60;;
20749;SDS011;10535;50.664;4.564;2023-04-03T04:01:21;5.53;;;5.00;;
20749;SDS011;10535;50.664;4.564;2023-04-03T04:03:47;11.57;;;5.03;;
20749;SDS011;10535;50.664;4.564;2023-04-03T04:06:12;5.47;;;4.33;;
20749;SDS011;10535;50.664;4.564;2023-04-03T04:08:38;7.67;;;4.43;;
20749;SDS011;10535;50.664;4.564;2023-04-03T04:11:04;7.23;;;4.43;;
20749;SDS011;10535;50.664;4.564;2023-04-03T04:13:29;7.00;;;4.53;;
20749;SDS011;10535;50.664;4.564;2023-04-03T04:15:55;6.57;;;4.30;;
20749;SDS011;10535;50.664;4.564;2023-04-03T04:18:21;7.93;;;4.70;;
20749;SDS011;10535;50.664;4.564;2023-04-03T04:20:47;6.23;;;3.53;;
20749;SDS011;10535;50.664;4.564;2023-04-03T04:23:13;8.83;;;4.50;;
20749;SDS011;10535;50.664;4.564;2023-04-03T04:25:39;6.43;;;4.63;;
20749;SDS011;10535;50.664;4.564;2023-04-03T04:28:06;10.53;;;4.60;;
20749;SDS011;10535;50.664;4.564;2023-04-03T04:30:31;7.63;;;4.63;;
20749;SDS011;10535;50.664;4.564;2023-04-03T04:33:00;5.87;;;4.60;;
20749;SDS011;10535;50.664;4.564;2023-04-03T04:35:27;5.40;;;3.60;;
20749;SDS011;10535;50.664;4.564;2023-04-03T04:37:52;9.07;;;4.77;;
20749;SDS011;10535;50.664;4.564;2023-04-03T04:40:18;7.70;;;4.97;;
20749;SDS011;10535;50.664;4.564;2023-04-03T04:42:44;12.13;;;4.17;;
20749;SDS011;10535;50.664;4.564;2023-04-03T04:45:09;7.43;;;5.03;;
20749;SDS011;10535;50.664;4.564;2023-04-03T04:47:35;6.27;;;4.33;;
20749;SDS011;10535;50.664;4.564;2023-04-03T04:50:02;8.90;;;4.10;;
20749;SDS011;10535;50.664;4.564;2023-04-03T04:52:28;8.60;;;5.27;;
20749;SDS011;10535;50.664;4.564;2023-04-03T04:54:54;9.00;;;5.07;;
20749;SDS011;10535;50.664;4.564;2023-04-03T04:57:19;8.33;;;5.13;;
20749;SDS011;10535;50.664;4.564;2023-04-03T04:59:45;3.87;;;2.63;;
20749;SDS011;10535;50.664;4.564;2023-04-03T05:02:11;5.47;;;4.30;;
20749;SDS011;10535;50.664;4.564;2023-04-03T05:04:36;6.33;;;4.60;;
20749;SDS011;10535;50.664;4.564;2023-04-03T05:07:02;10.00;;;4.80;;
20749;SDS011;10535;50.664;4.564;2023-04-03T05:09:27;6.83;;;5.13;;
20749;SDS011;10535;50.664;4.564;2023-04-03T05:11:54;7.63;;;5.57;;
20749;SDS011;10535;50.664;4.564;2023-04-03T05:14:21;9.50;;;5.40;;
20749;SDS011;10535;50.664;4.564;2023-04-03T05:16:47;6.33;;;5.30;;
20749;SDS011;10535;50.664;4.564;2023-04-03T05:19:13;7.77;;;5.90;;
20749;SDS011;10535;50.664;4.564;2023-04-03T05:21:38;10.77;;;5.00;;
20749;SDS011;10535;50.664;4.564;2023-04-03T05:24:04;6.37;;;4.97;;
20749;SDS011;10535;50.664;4.564;2023-04-03T05:26:33;11.20;;;6.13;;
20749;SDS011;10535;50.664;4.564;2023-04-03T05:28:59;6.67;;;5.10;;
20749;SDS011;10535;50.664;4.564;2023-04-03T05:31:25;10.37;;;6.73;;
20749;SDS011;10535;50.664;4.564;2023-04-03T05:33:51;8.00;;;5.43;;
20749;SDS011;10535;50.664;4.564;2023-04-03T05:36:16;11.40;;;4.83;;
20749;SDS011;10535;50.664;4.564;2023-04-03T05:38:42;10.43;;;5.47;;
20749;SDS011;10535;50.664;4.564;2023-04-03T05:41:08;9.40;;;6.33;;
20749;SDS011;10535;50.664;4.564;2023-04-03T05:43:33;10.03;;;6.07;;
20749;SDS011;10535;50.664;4.564;2023-04-03T05:46:02;7.07;;;5.27;;
20749;SDS011;10535;50.664;4.564;2023-04-03T05:48:28;7.07;;;4.87;;
20749;SDS011;10535;50.664;4.564;2023-04-03T05:50:53;14.23;;;7.27;;
20749;SDS011;10535;50.664;4.564;2023-04-03T05:53:21;10.70;;;5.47;;
20749;SDS011;10535;50.664;4.564;2023-04-03T05:55:50;8.33;;;6.13;;
20749;SDS011;10535;50.664;4.564;2023-04-03T05:58:15;10.57;;;6.33;;
20749;SDS011;10535;50.664;4.564;2023-04-03T06:00:41;9.83;;;6.37;;
20749;SDS011;10535;50.664;4.564;2023-04-03T06:03:06;9.93;;;6.17;;
20749;SDS011;10535;50.664;4.564;2023-04-03T06:05:32;8.37;;;6.10;;
20749;SDS011;10535;50.664;4.564;2023-04-03T06:07:57;8.37;;;5.30;;
20749;SDS011;10535;50.664;4.564;2023-04-03T06:10:23;9.93;;;6.83;;
20749;SDS011;10535;50.664;4.564;2023-04-03T06:12:49;10.60;;;6.50;;
20749;SDS011;10535;50.664;4.564;2023-04-03T06:15:16;7.80;;;6.07;;
20749;SDS011;10535;50.664;4.564;2023-04-03T06:17:42;9.63;;;5.40;;
20749;SDS011;10535;50.664;4.564;2023-04-03T06:20:08;10.43;;;6.77;;
20749;SDS011;10535;50.664;4.564;2023-04-03T06:22:34;9.93;;;6.97;;
20749;SDS011;10535;50.664;4.564;2023-04-03T06:25:01;8.67;;;4.17;;
20749;SDS011;10535;50.664;4.564;2023-04-03T06:27:27;9.53;;;5.90;;
20749;SDS011;10535;50.664;4.564;2023-04-03T06:29:52;6.20;;;5.10;;
20749;SDS011;10535;50.664;4.564;2023-04-03T06:32:18;7.03;;;5.33;;
20749;SDS011;10535;50.664;4.564;2023-04-03T06:34:43;6.47;;;4.70;;
20749;SDS011;10535;50.664;4.564;2023-04-03T06:37:15;9.70;;;5.20;;
20749;SDS011;10535;50.664;4.564;2023-04-03T06:39:43;7.77;;;4.83;;
20749;SDS011;10535;50.664;4.564;2023-04-03T06:42:10;7.67;;;5.40;;
20749;SDS011;10535;50.664;4.564;2023-04-03T06:44:36;6.60;;;4.77;;
20749;SDS011;10535;50.664;4.564;2023-04-03T06:47:02;8.30;;;5.43;;
20749;SDS011;10535;50.664;4.564;2023-04-03T06:49:28;7.27;;;5.23;;
20749;SDS011;10535;50.664;4.564;2023-04-03T06:51:54;8.00;;;5.27;;
20749;SDS011;10535;50.664;4.564;2023-04-03T06:54:21;6.47;;;4.80;;
20749;SDS011;10535;50.664;4.564;2023-04-03T06:56:47;8.37;;;5.03;;
20749;SDS011;10535;50.664;4.564;2023-04-03T06:59:13;6.20;;;5.10;;
20749;SDS011;10535;50.664;4.564;2023-04-03T07:01:39;8.87;;;5.10;;
20749;SDS011;10535;50.664;4.564;2023-04-03T07:04:07;10.33;;;5.70;;
20749;SDS011;10535;50.664;4.564;2023-04-03T07:06:33;9.67;;;6.00;;
20749;SDS011;10535;50.664;4.564;2023-04-03T07:09:02;7.43;;;5.27;;
20749;SDS011;10535;50.664;4.564;2023-04-03T07:11:28;9.23;;;5.57;;
20749;SDS011;10535;50.664;4.564;2023-04-03T07:13:57;13.73;;;6.50;;
20749;SDS011;10535;50.664;4.564;2023-04-03T07:16:23;9.20;;;6.80;;
20749;SDS011;10535;50.664;4.564;2023-04-03T07:18:48;12.20;;;5.87;;
20749;SDS011;10535;50.664;4.564;2023-04-03T07:21:14;8.47;;;5.73;;
20749;SDS011;10535;50.664;4.564;2023-04-03T07:23:40;6.30;;;3.93;;
20749;SDS011;10535;50.664;4.564;2023-04-03T07:26:05;13.30;;;5.40;;
20749;SDS011;10535;50.664;4.564;2023-04-03T07:28:32;7.37;;;6.00;;
20749;SDS011;10535;50.664;4.564;2023-04-03T07:31:00;10.13;;;5.97;;
20749;SDS011;10535;50.664;4.564;2023-04-03T07:33:33;10.63;;;6.23;;
20749;SDS011;10535;50.664;4.564;2023-04-03T07:35:59;9.97;;;7.13;;
20749;SDS011;10535;50.664;4.564;2023-04-03T07:38:26;8.93;;;6.93;;
20749;SDS011;10535;50.664;4.564;2023-04-03T07:40:52;11.10;;;5.50;;
20749;SDS011;10535;50.664;4.564;2023-04-03T07:43:18;13.40;;;7.47;;
20749;SDS011;10535;50.664;4.564;2023-04-03T07:45:45;11.50;;;7.07;;
20749;SDS011;10535;50.664;4.564;2023-04-03T07:48:14;10.17;;;6.60;;
20749;SDS011;10535;50.664;4.564;2023-04-03T07:50:41;8.37;;;5.50;;
20749;SDS011;10535;50.664;4.564;2023-04-03T07:53:07;13.83;;;5.97;;
20749;SDS011;10535;50.664;4.564;2023-04-03T07:55:32;6.47;;;5.70;;
20749;SDS011;10535;50.664;4.564;2023-04-03T07:57:59;9.97;;;5.70;;
20749;SDS011;10535;50.664;4.564;2023-04-03T08:00:24;5.67;;;4.87;;
20749;SDS011;10535;50.664;4.564;2023-04-03T08:02:50;9.60;;;5.20;;
20749;SDS011;10535;50.664;4.564;2023-04-03T08:05:20;8.47;;;5.80;;
20749;SDS011;10535;50.664;4.564;2023-04-03T08:07:46;12.80;;;7.67;;
20749;SDS011;10535;50.664;4.564;2023-04-03T08:10:12;9.93;;;5.93;;
20749;SDS011;10535;50.664;4.564;2023-04-03T08:12:39;7.57;;;5.33;;
20749;SDS011;10535;50.664;4.564;2023-04-03T08:15:05;7.67;;;4.97;;
20749;SDS011;10535;50.664;4.564;2023-04-03T08:17:33;9.33;;;4.90;;
20749;SDS011;10535;50.664;4.564;2023-04-03T08:19:58;7.63;;;5.03;;
20749;SDS011;10535;50.664;4.564;2023-04-03T08:22:24;10.10;;;5.30;;
20749;SDS011;10535;50.664;4.564;2023-04-03T08:24:50;6.37;;;4.60;;
20749;SDS011;10535;50.664;4.564;2023-04-03T08:27:15;8.23;;;5.10;;
20749;SDS011;10535;50.664;4.564;2023-04-03T08:29:41;15.40;;;4.83;;
20749;SDS011;10535;50.664;4.564;2023-04-03T08:32:07;8.57;;;5.50;;
20749;SDS011;10535;50.664;4.564;2023-04-03T08:34:32;10.63;;;4.37;;
20749;SDS011;10535;50.664;4.564;2023-04-03T08:37:00;7.37;;;3.03;;
20749;SDS011;10535;50.664;4.564;2023-04-03T08:39:26;4.97;;;3.87;;
20749;SDS011;10535;50.664;4.564;2023-04-03T08:41:52;6.47;;;4.33;;
20749;SDS011;10535;50.664;4.564;2023-04-03T08:49:55;5.57;;;4.70;;
20749;SDS011;10535;50.664;4.564;2023-04-03T08:52:42;6.50;;;3.63;;
20749;SDS011;10535;50.664;4.564;2023-04-03T08:58:04;4.47;;;3.37;;
20749;SDS011;10535;50.664;4.564;2023-04-03T09:00:38;8.43;;;4.30;;
20749;SDS011;10535;50.664;4.564;2023-04-03T09:03:28;5.33;;;3.50;;
20749;SDS011;10535;50.664;4.564;2023-04-03T09:08:31;3.90;;;3.23;;
20749;SDS011;10535;50.664;4.564;2023-04-03T09:19:35;7.63;;;3.37;;
20749;SDS011;10535;50.664;4.564;2023-04-03T09:21:48;7.80;;;3.57;;
20749;SDS011;10535;50.664;4.564;2023-04-03T09:24:15;9.57;;;3.67;;
20749;SDS011;10535;50.664;4.564;2023-04-03T09:29:20;6.97;;;4.27;;
20749;SDS011;10535;50.664;4.564;2023-04-03T09:31:48;3.57;;;3.23;;
20749;SDS011;10535;50.664;4.564;2023-04-03T09:36:57;3.80;;;2.67;;
20749;SDS011;10535;50.664;4.564;2023-04-03T09:39:26;5.27;;;3.53;;
20749;SDS011;10535;50.664;4.564;2023-04-03T09:42:04;4.83;;;3.50;;
20749;SDS011;10535;50.664;4.564;2023-04-03T09:44:38;1.80;;;1.63;;
20749;SDS011;10535;50.664;4.564;2023-04-03T09:47:26;3.00;;;2.70;;
20749;SDS011;10535;50.664;4.564;2023-04-03T09:52:54;3.80;;;1.73;;
20749;SDS011;10535;50.664;4.564;2023-04-03T09:55:21;6.43;;;3.33;;
20749;SDS011;10535;50.664;4.564;2023-04-03T09:57:54;5.70;;;2.90;;
20749;SDS011;10535;50.664;4.564;2023-04-03T10:00:28;3.27;;;2.50;;
20749;SDS011;10535;50.664;4.564;2023-04-03T10:03:01;3.33;;;2.13;;
20749;SDS011;10535;50.664;4.564;2023-04-03T10:05:32;3.47;;;2.40;;
20749;SDS011;10535;50.664;4.564;2023-04-03T10:08:46;9.27;;;3.10;;
20749;SDS011;10535;50.664;4.564;2023-04-03T10:11:14;3.40;;;2.40;;
20749;SDS011;10535;50.664;4.564;2023-04-03T10:16:27;4.27;;;2.10;;
20749;SDS011;10535;50.664;4.564;2023-04-03T10:25:43;2.00;;;1.67;;
20749;SDS011;10535;50.664;4.564;2023-04-03T10:28:56;2.10;;;1.90;;
20749;SDS011;10535;50.664;4.564;2023-04-03T10:31:36;5.80;;;2.07;;
20749;SDS011;10535;50.664;4.564;2023-04-03T10:37:34;4.37;;;1.77;;
20749;SDS011;10535;50.664;4.564;2023-04-03T10:40:24;4.77;;;2.30;;
20749;SDS011;10535;50.664;4.564;2023-04-03T10:45:51;2.17;;;1.87;;
20749;SDS011;10535;50.664;4.564;2023-04-03T10:51:45;4.03;;;1.57;;
20749;SDS011;10535;50.664;4.564;2023-04-03T10:57:55;2.40;;;1.50;;
20749;SDS011;10535;50.664;4.564;2023-04-03T11:01:13;3.33;;;1.70;;
20749;SDS011;10535;50.664;4.564;2023-04-03T11:03:44;2.37;;;1.97;;
20749;SDS011;10535;50.664;4.564;2023-04-03T11:06:25;2.70;;;1.77;;
20749;SDS011;10535;50.664;4.564;2023-04-03T11:09:26;1.83;;;1.73;;
20749;SDS011;10535;50.664;4.564;2023-04-03T11:15:37;1.33;;;1.00;;
20749;SDS011;10535;50.664;4.564;2023-04-03T11:18:32;2.83;;;1.53;;
20749;SDS011;10535;50.664;4.564;2023-04-03T11:21:39;2.10;;;1.70;;
20749;SDS011;10535;50.664;4.564;2023-04-03T11:24:37;1.63;;;1.53;;
20749;SDS011;10535;50.664;4.564;2023-04-03T11:27:50;3.23;;;1.60;;
20749;SDS011;10535;50.664;4.564;2023-04-03T11:30:28;1.47;;;1.37;;
20749;SDS011;10535;50.664;4.564;2023-04-03T11:36:05;3.03;;;1.50;;
20749;SDS011;10535;50.664;4.564;2023-04-03T11:38:42;3.90;;;1.10;;
20749;SDS011;10535;50.664;4.564;2023-04-03T11:45:54;5.97;;;1.50;;
20749;SDS011;10535;50.664;4.564;2023-04-03T11:48:58;6.70;;;1.60;;
20749;SDS011;10535;50.664;4.564;2023-04-03T11:51:49;3.37;;;1.40;;
20749;SDS011;10535;50.664;4.564;2023-04-03T11:54:35;3.97;;;1.30;;
20749;SDS011;10535;50.664;4.564;2023-04-03T11:57:45;1.47;;;0.93;;
20749;SDS011;10535;50.664;4.564;2023-04-03T12:09:25;4.43;;;1.63;;
20749;SDS011;10535;50.664;4.564;2023-04-03T12:12:22;2.10;;;1.13;;
20749;SDS011;10535;50.664;4.564;2023-04-03T12:15:50;3.67;;;1.67;;
20749;SDS011;10535;50.664;4.564;2023-04-03T12:18:43;2.63;;;1.20;;
20749;SDS011;10535;50.664;4.564;2023-04-03T12:24:53;2.77;;;1.63;;
20749;SDS011;10535;50.664;4.564;2023-04-03T12:30:22;1.97;;;1.50;;
20749;SDS011;10535;50.664;4.564;2023-04-03T12:36:26;1.03;;;0.93;;
20749;SDS011;10535;50.664;4.564;2023-04-03T12:39:35;4.77;;;1.60;;
20749;SDS011;10535;50.664;4.564;2023-04-03T12:45:38;3.00;;;1.00;;
20749;SDS011;10535;50.664;4.564;2023-04-03T12:48:28;0.83;;;0.83;;
20749;SDS011;10535;50.664;4.564;2023-04-03T12:51:39;1.30;;;1.20;;
20749;SDS011;10535;50.664;4.564;2023-04-03T12:54:13;2.30;;;1.10;;
20749;SDS011;10535;50.664;4.564;2023-04-03T12:57:25;1.23;;;0.90;;
20749;SDS011;10535;50.664;4.564;2023-04-03T13:03:04;1.70;;;0.90;;
20749;SDS011;10535;50.664;4.564;2023-04-03T13:06:00;0.80;;;0.80;;
20749;SDS011;10535;50.664;4.564;2023-04-03T13:08:48;0.90;;;0.90;;
20749;SDS011;10535;50.664;4.564;2023-04-03T13:11:50;0.80;;;0.80;;
20749;SDS011;10535;50.664;4.564;2023-04-03T13:14:39;3.30;;;1.13;;
20749;SDS011;10535;50.664;4.564;2023-04-03T13:17:38;1.63;;;1.00;;
20749;SDS011;10535;50.664;4.564;2023-04-03T13:20:27;1.10;;;1.00;;
20749;SDS011;10535;50.664;4.564;2023-04-03T13:23:05;0.77;;;0.70;;
20749;SDS011;10535;50.664;4.564;2023-04-03T13:26:06;1.47;;;0.80;;
20749;SDS011;10535;50.664;4.564;2023-04-03T13:29:34;1.93;;;1.03;;
20749;SDS011;10535;50.664;4.564;2023-04-03T13:32:24;3.83;;;1.47;;
20749;SDS011;10535;50.664;4.564;2023-04-03T13:34:53;1.53;;;1.20;;
20749;SDS011;10535;50.664;4.564;2023-04-03T13:37:26;1.33;;;1.20;;
20749;SDS011;10535;50.664;4.564;2023-04-03T13:42:34;2.03;;;1.07;;
20749;SDS011;10535;50.664;4.564;2023-04-03T13:47:45;2.20;;;1.17;;
20749;SDS011;10535;50.664;4.564;2023-04-03T13:50:50;1.80;;;1.10;;
20749;SDS011;10535;50.664;4.564;2023-04-03T13:53:21;2.07;;;1.53;;
20749;SDS011;10535;50.664;4.564;2023-04-03T13:56:31;1.87;;;1.37;;
20749;SDS011;10535;50.664;4.564;2023-04-03T13:59:49;1.70;;;1.17;;
20749;SDS011;10535;50.664;4.564;2023-04-03T14:03:14;3.00;;;0.80;;
20749;SDS011;10535;50.664;4.564;2023-04-03T14:06:32;3.47;;;1.47;;
20749;SDS011;10535;50.664;4.564;2023-04-03T14:09:36;2.47;;;1.30;;
20749;SDS011;10535;50.664;4.564;2023-04-03T14:12:05;2.43;;;1.30;;
20749;SDS011;10535;50.664;4.564;2023-04-03T14:18:36;2.13;;;1.30;;
20749;SDS011;10535;50.664;4.564;2023-04-03T14:21:05;1.73;;;1.20;;
20749;SDS011;10535;50.664;4.564;2023-04-03T14:24:04;2.03;;;1.47;;
20749;SDS011;10535;50.664;4.564;2023-04-03T14:26:34;1.17;;;1.03;;
20749;SDS011;10535;50.664;4.564;2023-04-03T14:31:57;5.40;;;1.60;;
20749;SDS011;10535;50.664;4.564;2023-04-03T14:34:26;1.60;;;1.20;;
20749;SDS011;10535;50.664;4.564;2023-04-03T14:36:55;2.20;;;1.57;;
20749;SDS011;10535;50.664;4.564;2023-04-03T14:39:51;2.73;;;1.17;;
20749;SDS011;10535;50.664;4.564;2023-04-03T14:46:11;2.23;;;1.50;;
20749;SDS011;10535;50.664;4.564;2023-04-03T14:49:46;1.70;;;1.00;;
20749;SDS011;10535;50.664;4.564;2023-04-03T14:52:59;2.00;;;1.30;;
20749;SDS011;10535;50.664;4.564;2023-04-03T14:55:26;2.53;;;1.23;;
20749;SDS011;10535;50.664;4.564;2023-04-03T14:58:33;0.93;;;0.93;;
20749;SDS011;10535;50.664;4.564;2023-04-03T15:01:53;2.43;;;1.40;;
20749;SDS011;10535;50.664;4.564;2023-04-03T15:05:14;1.90;;;1.13;;
20749;SDS011;10535;50.664;4.564;2023-04-03T15:08:19;2.13;;;1.20;;
20749;SDS011;10535;50.664;4.564;2023-04-03T15:10:47;1.77;;;1.30;;
20749;SDS011;10535;50.664;4.564;2023-04-03T15:13:58;1.37;;;1.10;;
20749;SDS011;10535;50.664;4.564;2023-04-03T15:19:21;3.03;;;1.53;;
20749;SDS011;10535;50.664;4.564;2023-04-03T15:22:06;3.07;;;1.40;;
20749;SDS011;10535;50.664;4.564;2023-04-03T15:25:11;1.63;;;1.40;;
20749;SDS011;10535;50.664;4.564;2023-04-03T15:27:50;1.33;;;1.13;;
20749;SDS011;10535;50.664;4.564;2023-04-03T15:30:25;2.67;;;1.57;;
20749;SDS011;10535;50.664;4.564;2023-04-03T15:33:15;2.03;;;1.10;;
20749;SDS011;10535;50.664;4.564;2023-04-03T15:39:13;4.90;;;1.50;;
20749;SDS011;10535;50.664;4.564;2023-04-03T15:42:01;1.47;;;1.37;;
20749;SDS011;10535;50.664;4.564;2023-04-03T15:45:15;2.73;;;1.40;;
20749;SDS011;10535;50.664;4.564;2023-04-03T15:47:43;2.73;;;1.93;;
20749;SDS011;10535;50.664;4.564;2023-04-03T15:50:35;1.20;;;1.10;;
20749;SDS011;10535;50.664;4.564;2023-04-03T15:53:20;3.03;;;1.37;;
20749;SDS011;10535;50.664;4.564;2023-04-03T15:55:49;2.77;;;2.10;;
20749;SDS011;10535;50.664;4.564;2023-04-03T15:58:22;1.90;;;1.17;;
20749;SDS011;10535;50.664;4.564;2023-04-03T16:00:48;2.50;;;1.30;;
20749;SDS011;10535;50.664;4.564;2023-04-03T16:03:39;2.63;;;1.50;;
20749;SDS011;10535;50.664;4.564;2023-04-03T16:09:31;1.17;;;1.07;;
20749;SDS011;10535;50.664;4.564;2023-04-03T16:11:59;4.03;;;1.50;;
20749;SDS011;10535;50.664;4.564;2023-04-03T16:14:27;2.37;;;1.50;;
20749;SDS011;10535;50.664;4.564;2023-04-03T16:16:57;1.60;;;1.27;;
20749;SDS011;10535;50.664;4.564;2023-04-03T16:19:24;1.87;;;1.30;;
20749;SDS011;10535;50.664;4.564;2023-04-03T16:21:50;4.00;;;1.70;;
20749;SDS011;10535;50.664;4.564;2023-04-03T16:24:18;1.83;;;1.37;;
20749;SDS011;10535;50.664;4.564;2023-04-03T16:26:47;2.17;;;1.73;;
20749;SDS011;10535;50.664;4.564;2023-04-03T16:29:13;1.43;;;1.20;;
20749;SDS011;10535;50.664;4.564;2023-04-03T16:31:40;1.90;;;1.10;;
20749;SDS011;10535;50.664;4.564;2023-04-03T16:34:07;2.00;;;1.40;;
20749;SDS011;10535;50.664;4.564;2023-04-03T16:36:35;2.90;;;1.27;;
20749;SDS011;10535;50.664;4.564;2023-04-03T16:39:02;3.17;;;1.30;;
20749;SDS011;10535;50.664;4.564;2023-04-03T16:41:28;2.20;;;1.33;;
20749;SDS011;10535;50.664;4.564;2023-04-03T16:43:54;1.33;;;1.23;;
20749;SDS011;10535;50.664;4.564;2023-04-03T16:46:19;1.83;;;1.23;;
20749;SDS011;10535;50.664;4.564;2023-04-03T16:48:47;1.67;;;1.20;;
20749;SDS011;10535;50.664;4.564;2023-04-03T16:51:13;1.40;;;1.30;;
20749;SDS011;10535;50.664;4.564;2023-04-03T16:56:18;2.10;;;1.00;;
20749;SDS011;10535;50.664;4.564;2023-04-03T16:58:58;3.30;;;1.20;;
20749;SDS011;10535;50.664;4.564;2023-04-03T17:01:24;5.63;;;1.40;;
20749;SDS011;10535;50.664;4.564;2023-04-03T17:03:59;1.83;;;1.33;;
20749;SDS011;10535;50.664;4.564;2023-04-03T17:06:29;1.00;;;0.90;;
20749;SDS011;10535;50.664;4.564;2023-04-03T17:08:56;2.87;;;1.20;;
20749;SDS011;10535;50.664;4.564;2023-04-03T17:11:28;1.50;;;1.10;;
20749;SDS011;10535;50.664;4.564;2023-04-03T17:13:59;2.50;;;1.43;;
20749;SDS011;10535;50.664;4.564;2023-04-03T17:16:26;3.33;;;1.30;;
20749;SDS011;10535;50.664;4.564;2023-04-03T17:19:15;5.50;;;1.53;;
20749;SDS011;10535;50.664;4.564;2023-04-03T17:21:44;2.63;;;1.50;;
20749;SDS011;10535;50.664;4.564;2023-04-03T17:24:11;3.63;;;1.37;;
20749;SDS011;10535;50.664;4.564;2023-04-03T17:26:41;1.97;;;1.17;;